sensor_id;sensor_type;location;lat;lon;timestamp;temperature;humidity
4699;DHT22;33708;49.466;11.176;2022-12-08T00:00:49;4.10;99.90
4699;DHT22;33708;49.466;11.176;2022-12-08T00:03:14;4.20;99.90
4699;DHT22;33708;49.466;11.176;2022-12-08T00:05:44;4.20;99.90
4699;DHT22;33708;49.466;11.176;2022-12-08T00:08:29;4.20;99.90
4699;DHT22;33708;49.466;11.176;2022-12-08T00:11:14;4.30;99.90
4699;DHT22;33708;49.466;11.176;2022-12-08T00:13:40;4.30;99.90
4699;DHT22;33708;49.466;11.176;2022-12-08T00:16:06;4.40;99.90
4699;DHT22;33708;49.466;11.176;2022-12-08T00:18:32;4.30;99.90
4699;DHT22;33708;49.466;11.176;2022-12-08T00:20:58;4.20;99.90
4699;DHT22;33708;49.466;11.176;2022-12-08T00:23:24;4.20;99.90
4699;DHT22;33708;49.466;11.176;2022-12-08T00:25:50;4.30;99.90
4699;DHT22;33708;49.466;11.176;2022-12-08T00:28:16;4.30;99.90
4699;DHT22;33708;49.466;11.176;2022-12-08T00:30:42;4.30;99.90
4699;DHT22;33708;49.466;11.176;2022-12-08T00:33:08;4.20;99.90
4699;DHT22;33708;49.466;11.176;2022-12-08T00:35:34;4.30;99.90
4699;DHT22;33708;49.466;11.176;2022-12-08T00:38:00;4.30;99.90
4699;DHT22;33708;49.466;11.176;2022-12-08T00:40:25;4.20;99.90
4699;DHT22;33708;49.466;11.176;2022-12-08T00:42:51;4.20;99.90
4699;DHT22;33708;49.466;11.176;2022-12-08T00:45:17;3.90;99.90
4699;DHT22;33708;49.466;11.176;2022-12-08T00:47:43;4.00;99.90
4699;DHT22;33708;49.466;11.176;2022-12-08T00:50:09;4.00;99.90
4699;DHT22;33708;49.466;11.176;2022-12-08T00:52:35;4.00;99.90
4699;DHT22;33708;49.466;11.176;2022-12-08T00:55:01;4.10;99.90
4699;DHT22;33708;49.466;11.176;2022-12-08T00:57:26;4.10;99.90
4699;DHT22;33708;49.466;11.176;2022-12-08T00:59:52;4.10;99.90
4699;DHT22;33708;49.466;11.176;2022-12-08T01:02:17;4.10;99.90
4699;DHT22;33708;49.466;11.176;2022-12-08T01:04:44;4.00;99.90
4699;DHT22;33708;49.466;11.176;2022-12-08T01:07:10;4.10;99.90
4699;DHT22;33708;49.466;11.176;2022-12-08T01:09:36;4.20;99.90
4699;DHT22;33708;49.466;11.176;2022-12-08T01:12:02;4.00;99.90
4699;DHT22;33708;49.466;11.176;2022-12-08T01:14:27;4.10;99.90
4699;DHT22;33708;49.466;11.176;2022-12-08T01:16:53;4.00;99.90
4699;DHT22;33708;49.466;11.176;2022-12-08T01:19:18;4.10;99.90
4699;DHT22;33708;49.466;11.176;2022-12-08T01:21:45;4.10;99.90
4699;DHT22;33708;49.466;11.176;2022-12-08T01:24:19;4.10;99.90
4699;DHT22;33708;49.466;11.176;2022-12-08T01:26:47;4.10;99.90
4699;DHT22;33708;49.466;11.176;2022-12-08T01:29:16;4.00;99.90
4699;DHT22;33708;49.466;11.176;2022-12-08T01:31:43;3.90;99.90
4699;DHT22;33708;49.466;11.176;2022-12-08T01:34:12;3.80;99.90
4699;DHT22;33708;49.466;11.176;2022-12-08T01:36:40;3.50;99.90
4699;DHT22;33708;49.466;11.176;2022-12-08T01:39:14;3.40;99.90
4699;DHT22;33708;49.466;11.176;2022-12-08T01:41:41;3.20;99.90
4699;DHT22;33708;49.466;11.176;2022-12-08T01:46:40;3.10;99.90
4699;DHT22;33708;49.466;11.176;2022-12-08T01:49:32;3.00;99.90
4699;DHT22;33708;49.466;11.176;2022-12-08T01:54:40;2.80;99.90
4699;DHT22;33708;49.466;11.176;2022-12-08T01:57:32;2.80;99.90
4699;DHT22;33708;49.466;11.176;2022-12-08T02:00:04;2.60;99.90
4699;DHT22;33708;49.466;11.176;2022-12-08T02:02:41;2.50;99.90
4699;DHT22;33708;49.466;11.176;2022-12-08T02:05:08;2.40;99.90
4699;DHT22;33708;49.466;11.176;2022-12-08T02:07:34;2.30;99.90
4699;DHT22;33708;49.466;11.176;2022-12-08T02:10:01;2.30;99.90
4699;DHT22;33708;49.466;11.176;2022-12-08T02:12:27;2.20;99.90
4699;DHT22;33708;49.466;11.176;2022-12-08T02:14:52;2.20;99.90
4699;DHT22;33708;49.466;11.176;2022-12-08T02:17:33;2.00;99.90
4699;DHT22;33708;49.466;11.176;2022-12-08T02:22:53;2.10;99.90
4699;DHT22;33708;49.466;11.176;2022-12-08T02:31:17;2.20;99.90
4699;DHT22;33708;49.466;11.176;2022-12-08T02:42:16;1.90;99.90
4699;DHT22;33708;49.466;11.176;2022-12-08T02:44:47;1.80;99.90
4699;DHT22;33708;49.466;11.176;2022-12-08T02:47:18;1.60;99.90
4699;DHT22;33708;49.466;11.176;2022-12-08T02:49:45;1.50;99.90
4699;DHT22;33708;49.466;11.176;2022-12-08T02:54:39;1.50;99.90
4699;DHT22;33708;49.466;11.176;2022-12-08T03:00:08;1.60;99.90
4699;DHT22;33708;49.466;11.176;2022-12-08T03:05:29;1.40;99.90
4699;DHT22;33708;49.466;11.176;2022-12-08T03:10:57;1.40;99.90
4699;DHT22;33708;49.466;11.176;2022-12-08T03:13:33;1.50;99.90
4699;DHT22;33708;49.466;11.176;2022-12-08T03:16:00;1.50;99.90
4699;DHT22;33708;49.466;11.176;2022-12-08T03:18:30;1.40;99.90
4699;DHT22;33708;49.466;11.176;2022-12-08T03:21:00;1.40;99.90
4699;DHT22;33708;49.466;11.176;2022-12-08T03:23:27;1.40;99.90
4699;DHT22;33708;49.466;11.176;2022-12-08T03:26:09;1.50;99.90
4699;DHT22;33708;49.466;11.176;2022-12-08T03:28:36;1.70;99.90
4699;DHT22;33708;49.466;11.176;2022-12-08T03:31:06;1.90;99.90
4699;DHT22;33708;49.466;11.176;2022-12-08T03:33:37;1.90;99.90
4699;DHT22;33708;49.466;11.176;2022-12-08T03:36:07;1.90;99.90
4699;DHT22;33708;49.466;11.176;2022-12-08T03:38:44;2.00;99.90
4699;DHT22;33708;49.466;11.176;2022-12-08T03:41:10;1.90;99.90
4699;DHT22;33708;49.466;11.176;2022-12-08T03:43:56;2.20;99.90
4699;DHT22;33708;49.466;11.176;2022-12-08T03:46:27;2.20;99.90
4699;DHT22;33708;49.466;11.176;2022-12-08T03:48:53;2.20;99.90
4699;DHT22;33708;49.466;11.176;2022-12-08T03:51:19;2.30;99.90
4699;DHT22;33708;49.466;11.176;2022-12-08T03:53:46;2.30;99.90
4699;DHT22;33708;49.466;11.176;2022-12-08T03:56:33;2.30;99.90
4699;DHT22;33708;49.466;11.176;2022-12-08T03:58:59;2.40;99.90
4699;DHT22;33708;49.466;11.176;2022-12-08T04:01:24;2.60;99.90
4699;DHT22;33708;49.466;11.176;2022-12-08T04:03:50;2.60;99.90
4699;DHT22;33708;49.466;11.176;2022-12-08T04:06:16;2.70;99.90
4699;DHT22;33708;49.466;11.176;2022-12-08T04:08:43;2.80;99.90
4699;DHT22;33708;49.466;11.176;2022-12-08T04:11:08;2.80;99.90
4699;DHT22;33708;49.466;11.176;2022-12-08T04:13:37;2.90;99.90
4699;DHT22;33708;49.466;11.176;2022-12-08T04:16:04;2.80;99.90
4699;DHT22;33708;49.466;11.176;2022-12-08T04:18:30;2.80;99.90
4699;DHT22;33708;49.466;11.176;2022-12-08T04:20:56;2.80;99.90
4699;DHT22;33708;49.466;11.176;2022-12-08T04:23:22;2.80;99.90
4699;DHT22;33708;49.466;11.176;2022-12-08T04:25:48;2.60;99.90
4699;DHT22;33708;49.466;11.176;2022-12-08T04:28:15;2.60;99.90
4699;DHT22;33708;49.466;11.176;2022-12-08T04:30:40;2.70;99.90
4699;DHT22;33708;49.466;11.176;2022-12-08T04:33:06;2.80;99.90
4699;DHT22;33708;49.466;11.176;2022-12-08T04:35:32;2.80;99.90
4699;DHT22;33708;49.466;11.176;2022-12-08T04:37:58;2.80;99.90
4699;DHT22;33708;49.466;11.176;2022-12-08T04:40:23;2.70;99.90
4699;DHT22;33708;49.466;11.176;2022-12-08T04:42:49;2.60;99.90
4699;DHT22;33708;49.466;11.176;2022-12-08T04:45:15;2.60;99.90
4699;DHT22;33708;49.466;11.176;2022-12-08T04:47:41;2.50;99.90
4699;DHT22;33708;49.466;11.176;2022-12-08T04:50:07;2.40;99.90
4699;DHT22;33708;49.466;11.176;2022-12-08T04:52:33;2.50;99.90
4699;DHT22;33708;49.466;11.176;2022-12-08T04:54:59;2.40;99.90
4699;DHT22;33708;49.466;11.176;2022-12-08T04:57:25;2.40;99.90
4699;DHT22;33708;49.466;11.176;2022-12-08T04:59:50;2.50;99.90
4699;DHT22;33708;49.466;11.176;2022-12-08T05:02:16;2.50;99.90
4699;DHT22;33708;49.466;11.176;2022-12-08T05:04:42;2.60;99.90
4699;DHT22;33708;49.466;11.176;2022-12-08T05:07:07;2.50;99.90
4699;DHT22;33708;49.466;11.176;2022-12-08T05:09:33;2.50;99.90
4699;DHT22;33708;49.466;11.176;2022-12-08T05:11:59;2.50;99.90
4699;DHT22;33708;49.466;11.176;2022-12-08T05:14:24;2.60;99.90
4699;DHT22;33708;49.466;11.176;2022-12-08T05:16:50;2.70;99.90
4699;DHT22;33708;49.466;11.176;2022-12-08T05:19:16;2.50;99.90
4699;DHT22;33708;49.466;11.176;2022-12-08T05:21:43;2.90;99.90
4699;DHT22;33708;49.466;11.176;2022-12-08T05:24:08;2.80;99.90
4699;DHT22;33708;49.466;11.176;2022-12-08T05:26:34;2.80;99.90
4699;DHT22;33708;49.466;11.176;2022-12-08T05:29:00;2.80;99.90
4699;DHT22;33708;49.466;11.176;2022-12-08T05:31:25;2.80;99.90
4699;DHT22;33708;49.466;11.176;2022-12-08T05:33:52;2.80;99.90
4699;DHT22;33708;49.466;11.176;2022-12-08T05:36:18;2.60;99.90
4699;DHT22;33708;49.466;11.176;2022-12-08T05:38:45;2.40;99.90
4699;DHT22;33708;49.466;11.176;2022-12-08T05:41:19;2.40;99.90
4699;DHT22;33708;49.466;11.176;2022-12-08T05:43:46;2.70;99.90
4699;DHT22;33708;49.466;11.176;2022-12-08T05:46:12;2.70;99.90
4699;DHT22;33708;49.466;11.176;2022-12-08T05:48:38;2.60;99.90
4699;DHT22;33708;49.466;11.176;2022-12-08T05:51:06;2.50;99.90
4699;DHT22;33708;49.466;11.176;2022-12-08T05:53:32;2.50;99.90
4699;DHT22;33708;49.466;11.176;2022-12-08T05:55:57;2.50;99.90
4699;DHT22;33708;49.466;11.176;2022-12-08T05:58:23;2.50;99.90
4699;DHT22;33708;49.466;11.176;2022-12-08T06:00:49;2.50;99.90
4699;DHT22;33708;49.466;11.176;2022-12-08T06:03:16;2.70;99.90
4699;DHT22;33708;49.466;11.176;2022-12-08T06:05:43;2.50;99.90
4699;DHT22;33708;49.466;11.176;2022-12-08T06:08:10;2.40;99.90
4699;DHT22;33708;49.466;11.176;2022-12-08T06:10:40;2.40;99.90
4699;DHT22;33708;49.466;11.176;2022-12-08T06:13:06;2.60;99.90
4699;DHT22;33708;49.466;11.176;2022-12-08T06:15:38;2.60;99.90
4699;DHT22;33708;49.466;11.176;2022-12-08T06:18:04;2.60;99.90
4699;DHT22;33708;49.466;11.176;2022-12-08T06:20:31;2.50;99.90
4699;DHT22;33708;49.466;11.176;2022-12-08T06:22:57;2.50;99.90
4699;DHT22;33708;49.466;11.176;2022-12-08T06:25:23;2.50;99.90
4699;DHT22;33708;49.466;11.176;2022-12-08T06:27:49;2.30;99.90
4699;DHT22;33708;49.466;11.176;2022-12-08T06:30:15;2.40;99.90
4699;DHT22;33708;49.466;11.176;2022-12-08T06:32:41;2.30;99.90
4699;DHT22;33708;49.466;11.176;2022-12-08T06:35:07;2.20;99.90
4699;DHT22;33708;49.466;11.176;2022-12-08T06:37:33;2.20;99.90
4699;DHT22;33708;49.466;11.176;2022-12-08T06:39:58;2.20;99.90
4699;DHT22;33708;49.466;11.176;2022-12-08T06:42:24;2.30;99.90
4699;DHT22;33708;49.466;11.176;2022-12-08T06:45:09;2.20;99.90
4699;DHT22;33708;49.466;11.176;2022-12-08T06:47:35;2.50;99.90
4699;DHT22;33708;49.466;11.176;2022-12-08T06:50:00;2.50;99.90
4699;DHT22;33708;49.466;11.176;2022-12-08T06:52:26;2.40;99.90
4699;DHT22;33708;49.466;11.176;2022-12-08T06:54:52;2.60;99.90
4699;DHT22;33708;49.466;11.176;2022-12-08T06:57:17;2.30;99.90
4699;DHT22;33708;49.466;11.176;2022-12-08T06:59:43;2.40;99.90
4699;DHT22;33708;49.466;11.176;2022-12-08T07:02:10;2.50;99.90
4699;DHT22;33708;49.466;11.176;2022-12-08T07:04:35;2.60;99.90
4699;DHT22;33708;49.466;11.176;2022-12-08T07:07:01;2.50;99.90
4699;DHT22;33708;49.466;11.176;2022-12-08T07:09:27;2.50;99.90
4699;DHT22;33708;49.466;11.176;2022-12-08T07:11:52;2.30;99.90
4699;DHT22;33708;49.466;11.176;2022-12-08T07:14:18;2.30;99.90
4699;DHT22;33708;49.466;11.176;2022-12-08T07:16:47;2.30;99.90
4699;DHT22;33708;49.466;11.176;2022-12-08T07:19:13;2.40;99.90
4699;DHT22;33708;49.466;11.176;2022-12-08T07:21:39;2.30;99.90
4699;DHT22;33708;49.466;11.176;2022-12-08T07:24:04;2.30;99.90
4699;DHT22;33708;49.466;11.176;2022-12-08T07:26:30;2.30;99.90
4699;DHT22;33708;49.466;11.176;2022-12-08T07:28:58;2.20;99.90
4699;DHT22;33708;49.466;11.176;2022-12-08T07:31:24;2.40;99.90
4699;DHT22;33708;49.466;11.176;2022-12-08T07:33:51;2.50;99.90
4699;DHT22;33708;49.466;11.176;2022-12-08T07:36:17;2.50;99.90
4699;DHT22;33708;49.466;11.176;2022-12-08T07:38:43;2.40;99.90
4699;DHT22;33708;49.466;11.176;2022-12-08T07:41:17;2.50;99.90
4699;DHT22;33708;49.466;11.176;2022-12-08T07:43:43;2.40;99.90
4699;DHT22;33708;49.466;11.176;2022-12-08T07:46:18;2.60;99.90
4699;DHT22;33708;49.466;11.176;2022-12-08T07:48:45;2.70;99.90
4699;DHT22;33708;49.466;11.176;2022-12-08T07:51:12;2.80;99.90
4699;DHT22;33708;49.466;11.176;2022-12-08T07:53:39;2.80;99.90
4699;DHT22;33708;49.466;11.176;2022-12-08T07:56:06;2.70;99.90
4699;DHT22;33708;49.466;11.176;2022-12-08T07:58:32;2.90;99.90
4699;DHT22;33708;49.466;11.176;2022-12-08T08:00:58;3.00;99.90
4699;DHT22;33708;49.466;11.176;2022-12-08T08:03:23;2.80;99.90
4699;DHT22;33708;49.466;11.176;2022-12-08T08:05:49;2.80;99.90
4699;DHT22;33708;49.466;11.176;2022-12-08T08:08:15;2.90;99.90
4699;DHT22;33708;49.466;11.176;2022-12-08T08:10:42;2.90;99.90
4699;DHT22;33708;49.466;11.176;2022-12-08T08:13:08;3.10;99.90
4699;DHT22;33708;49.466;11.176;2022-12-08T08:15:34;3.00;99.90
4699;DHT22;33708;49.466;11.176;2022-12-08T08:17:59;2.90;99.90
4699;DHT22;33708;49.466;11.176;2022-12-08T08:20:25;3.00;99.90
4699;DHT22;33708;49.466;11.176;2022-12-08T08:22:51;3.10;99.90
4699;DHT22;33708;49.466;11.176;2022-12-08T08:25:18;3.20;99.90
4699;DHT22;33708;49.466;11.176;2022-12-08T08:27:44;3.40;99.90
4699;DHT22;33708;49.466;11.176;2022-12-08T08:30:12;3.10;99.90
4699;DHT22;33708;49.466;11.176;2022-12-08T08:32:39;3.20;99.90
4699;DHT22;33708;49.466;11.176;2022-12-08T08:35:05;3.20;99.90
4699;DHT22;33708;49.466;11.176;2022-12-08T08:37:30;3.40;99.90
4699;DHT22;33708;49.466;11.176;2022-12-08T08:39:56;3.60;99.90
4699;DHT22;33708;49.466;11.176;2022-12-08T08:42:22;3.60;99.90
4699;DHT22;33708;49.466;11.176;2022-12-08T08:44:47;3.60;99.90
4699;DHT22;33708;49.466;11.176;2022-12-08T08:47:13;3.70;99.90
4699;DHT22;33708;49.466;11.176;2022-12-08T08:49:39;3.70;99.90
4699;DHT22;33708;49.466;11.176;2022-12-08T08:52:05;3.70;99.90
4699;DHT22;33708;49.466;11.176;2022-12-08T08:54:31;3.70;99.90
4699;DHT22;33708;49.466;11.176;2022-12-08T08:56:58;3.70;99.90
4699;DHT22;33708;49.466;11.176;2022-12-08T08:59:24;4.00;99.90
4699;DHT22;33708;49.466;11.176;2022-12-08T09:01:51;3.80;99.90
4699;DHT22;33708;49.466;11.176;2022-12-08T09:04:16;3.70;99.90
4699;DHT22;33708;49.466;11.176;2022-12-08T09:06:42;3.60;99.90
4699;DHT22;33708;49.466;11.176;2022-12-08T09:09:10;3.70;99.90
4699;DHT22;33708;49.466;11.176;2022-12-08T09:11:36;3.90;99.90
4699;DHT22;33708;49.466;11.176;2022-12-08T09:14:02;4.00;99.90
4699;DHT22;33708;49.466;11.176;2022-12-08T09:16:27;3.80;99.90
4699;DHT22;33708;49.466;11.176;2022-12-08T09:18:53;3.60;99.90
4699;DHT22;33708;49.466;11.176;2022-12-08T09:21:21;3.90;99.90
4699;DHT22;33708;49.466;11.176;2022-12-08T09:23:55;4.10;99.90
4699;DHT22;33708;49.466;11.176;2022-12-08T09:26:21;3.90;99.90
4699;DHT22;33708;49.466;11.176;2022-12-08T09:28:51;3.50;99.90
4699;DHT22;33708;49.466;11.176;2022-12-08T09:31:18;3.40;99.90
4699;DHT22;33708;49.466;11.176;2022-12-08T09:33:44;3.50;99.90
4699;DHT22;33708;49.466;11.176;2022-12-08T09:36:10;3.70;99.90
4699;DHT22;33708;49.466;11.176;2022-12-08T09:38:37;3.90;99.90
4699;DHT22;33708;49.466;11.176;2022-12-08T09:41:11;4.10;99.90
4699;DHT22;33708;49.466;11.176;2022-12-08T09:46:33;4.00;99.90
4699;DHT22;33708;49.466;11.176;2022-12-08T09:49:01;4.10;99.90
4699;DHT22;33708;49.466;11.176;2022-12-08T09:51:34;3.90;99.90
4699;DHT22;33708;49.466;11.176;2022-12-08T09:54:30;4.00;99.90
4699;DHT22;33708;49.466;11.176;2022-12-08T09:57:00;4.10;99.90
4699;DHT22;33708;49.466;11.176;2022-12-08T09:59:32;4.00;99.90
4699;DHT22;33708;49.466;11.176;2022-12-08T10:02:05;4.10;99.90
4699;DHT22;33708;49.466;11.176;2022-12-08T10:04:37;4.00;99.90
4699;DHT22;33708;49.466;11.176;2022-12-08T10:07:21;4.20;99.90
4699;DHT22;33708;49.466;11.176;2022-12-08T10:12:33;4.00;99.90
4699;DHT22;33708;49.466;11.176;2022-12-08T10:17:39;4.40;99.90
4699;DHT22;33708;49.466;11.176;2022-12-08T10:20:25;4.50;99.90
4699;DHT22;33708;49.466;11.176;2022-12-08T10:25:45;4.70;99.90
4699;DHT22;33708;49.466;11.176;2022-12-08T10:28:11;4.30;99.90
4699;DHT22;33708;49.466;11.176;2022-12-08T10:30:37;4.50;99.90
4699;DHT22;33708;49.466;11.176;2022-12-08T10:33:03;4.60;99.90
4699;DHT22;33708;49.466;11.176;2022-12-08T10:38:23;5.00;99.90
4699;DHT22;33708;49.466;11.176;2022-12-08T10:40:52;5.30;99.90
4699;DHT22;33708;49.466;11.176;2022-12-08T10:43:23;5.40;99.90
4699;DHT22;33708;49.466;11.176;2022-12-08T10:45:50;5.60;99.90
4699;DHT22;33708;49.466;11.176;2022-12-08T10:48:19;5.80;99.90
4699;DHT22;33708;49.466;11.176;2022-12-08T10:50:46;5.60;99.90
4699;DHT22;33708;49.466;11.176;2022-12-08T10:53:25;5.50;99.90
4699;DHT22;33708;49.466;11.176;2022-12-08T10:56:05;5.70;99.90
4699;DHT22;33708;49.466;11.176;2022-12-08T11:01:22;5.80;99.90
4699;DHT22;33708;49.466;11.176;2022-12-08T11:03:58;5.70;99.90
4699;DHT22;33708;49.466;11.176;2022-12-08T11:06:35;5.80;99.90
4699;DHT22;33708;49.466;11.176;2022-12-08T11:09:35;5.90;99.90
4699;DHT22;33708;49.466;11.176;2022-12-08T11:17:11;5.90;99.90
4699;DHT22;33708;49.466;11.176;2022-12-08T11:19:43;6.10;99.90
4699;DHT22;33708;49.466;11.176;2022-12-08T11:25:22;6.50;99.90
4699;DHT22;33708;49.466;11.176;2022-12-08T11:27:57;6.60;99.90
4699;DHT22;33708;49.466;11.176;2022-12-08T11:30:27;6.80;99.90
4699;DHT22;33708;49.466;11.176;2022-12-08T11:33:18;7.00;99.90
4699;DHT22;33708;49.466;11.176;2022-12-08T11:35:50;7.00;99.90
4699;DHT22;33708;49.466;11.176;2022-12-08T11:38:20;7.20;99.90
4699;DHT22;33708;49.466;11.176;2022-12-08T11:40:48;7.20;99.90
4699;DHT22;33708;49.466;11.176;2022-12-08T11:45:47;6.60;99.90
4699;DHT22;33708;49.466;11.176;2022-12-08T11:48:20;6.70;99.90
4699;DHT22;33708;49.466;11.176;2022-12-08T11:50:56;6.40;99.90
4699;DHT22;33708;49.466;11.176;2022-12-08T11:53:28;6.40;99.90
4699;DHT22;33708;49.466;11.176;2022-12-08T11:56:06;6.40;99.90
4699;DHT22;33708;49.466;11.176;2022-12-08T11:58:40;6.20;99.90
4699;DHT22;33708;49.466;11.176;2022-12-08T12:01:28;6.10;99.90
4699;DHT22;33708;49.466;11.176;2022-12-08T12:09:39;6.10;99.90
4699;DHT22;33708;49.466;11.176;2022-12-08T12:22:47;5.80;99.90
4699;DHT22;33708;49.466;11.176;2022-12-08T12:25:20;5.70;99.90
4699;DHT22;33708;49.466;11.176;2022-12-08T12:27:47;5.60;99.90
4699;DHT22;33708;49.466;11.176;2022-12-08T12:30:21;5.50;99.90
4699;DHT22;33708;49.466;11.176;2022-12-08T12:32:52;5.60;99.90
4699;DHT22;33708;49.466;11.176;2022-12-08T12:35:26;5.50;99.90
4699;DHT22;33708;49.466;11.176;2022-12-08T12:37:56;5.50;99.90
4699;DHT22;33708;49.466;11.176;2022-12-08T12:40:25;5.60;99.90
4699;DHT22;33708;49.466;11.176;2022-12-08T12:45:29;5.70;99.90
4699;DHT22;33708;49.466;11.176;2022-12-08T12:53:03;5.60;99.90
4699;DHT22;33708;49.466;11.176;2022-12-08T13:04:06;5.40;99.90
4699;DHT22;33708;49.466;11.176;2022-12-08T13:06:46;5.30;99.90
4699;DHT22;33708;49.466;11.176;2022-12-08T13:09:28;5.40;99.90
4699;DHT22;33708;49.466;11.176;2022-12-08T13:11:57;5.60;99.90
4699;DHT22;33708;49.466;11.176;2022-12-08T13:14:52;5.50;99.90
4699;DHT22;33708;49.466;11.176;2022-12-08T13:17:30;5.70;99.90
4699;DHT22;33708;49.466;11.176;2022-12-08T13:19:59;5.60;99.90
4699;DHT22;33708;49.466;11.176;2022-12-08T13:30:51;5.20;99.90
4699;DHT22;33708;49.466;11.176;2022-12-08T13:33:32;5.30;99.90
4699;DHT22;33708;49.466;11.176;2022-12-08T13:36:34;5.40;99.90
4699;DHT22;33708;49.466;11.176;2022-12-08T13:39:03;5.40;99.90
4699;DHT22;33708;49.466;11.176;2022-12-08T13:41:40;5.40;99.90
4699;DHT22;33708;49.466;11.176;2022-12-08T13:44:14;5.40;99.90
4699;DHT22;33708;49.466;11.176;2022-12-08T13:46:49;5.40;99.90
4699;DHT22;33708;49.466;11.176;2022-12-08T13:49:20;5.40;99.90
4699;DHT22;33708;49.466;11.176;2022-12-08T13:51:47;5.30;99.90
4699;DHT22;33708;49.466;11.176;2022-12-08T13:54:32;5.30;99.90
4699;DHT22;33708;49.466;11.176;2022-12-08T13:56:59;4.80;99.90
4699;DHT22;33708;49.466;11.176;2022-12-08T13:59:29;5.10;99.90
4699;DHT22;33708;49.466;11.176;2022-12-08T14:01:58;5.00;99.90
4699;DHT22;33708;49.466;11.176;2022-12-08T14:04:26;4.90;99.90
4699;DHT22;33708;49.466;11.176;2022-12-08T14:06:57;5.00;99.90
4699;DHT22;33708;49.466;11.176;2022-12-08T14:09:31;4.80;99.90
4699;DHT22;33708;49.466;11.176;2022-12-08T14:12:25;4.70;99.90
4699;DHT22;33708;49.466;11.176;2022-12-08T14:14:57;4.70;99.90
4699;DHT22;33708;49.466;11.176;2022-12-08T14:17:23;4.40;99.90
4699;DHT22;33708;49.466;11.176;2022-12-08T14:19:56;4.50;99.90
4699;DHT22;33708;49.466;11.176;2022-12-08T14:22:22;4.30;99.90
4699;DHT22;33708;49.466;11.176;2022-12-08T14:24:51;4.10;99.90
4699;DHT22;33708;49.466;11.176;2022-12-08T14:27:22;4.10;99.90
4699;DHT22;33708;49.466;11.176;2022-12-08T14:29:51;4.20;99.90
4699;DHT22;33708;49.466;11.176;2022-12-08T14:32:19;4.20;99.90
4699;DHT22;33708;49.466;11.176;2022-12-08T14:34:53;4.20;99.90
4699;DHT22;33708;49.466;11.176;2022-12-08T14:37:19;4.20;99.90
4699;DHT22;33708;49.466;11.176;2022-12-08T14:39:46;4.30;99.90
4699;DHT22;33708;49.466;11.176;2022-12-08T14:42:30;4.20;99.90
4699;DHT22;33708;49.466;11.176;2022-12-08T14:45:10;4.10;99.90
4699;DHT22;33708;49.466;11.176;2022-12-08T14:47:36;4.00;99.90
4699;DHT22;33708;49.466;11.176;2022-12-08T14:50:04;4.10;99.90
4699;DHT22;33708;49.466;11.176;2022-12-08T14:52:49;4.20;99.90
4699;DHT22;33708;49.466;11.176;2022-12-08T14:55:15;4.20;99.90
4699;DHT22;33708;49.466;11.176;2022-12-08T14:57:41;4.30;99.90
4699;DHT22;33708;49.466;11.176;2022-12-08T15:00:09;4.30;99.90
4699;DHT22;33708;49.466;11.176;2022-12-08T15:02:43;4.20;99.90
4699;DHT22;33708;49.466;11.176;2022-12-08T15:05:13;4.20;99.90
4699;DHT22;33708;49.466;11.176;2022-12-08T15:12:41;4.10;99.90
4699;DHT22;33708;49.466;11.176;2022-12-08T15:15:20;4.20;99.90
4699;DHT22;33708;49.466;11.176;2022-12-08T15:22:51;4.30;99.90
4699;DHT22;33708;49.466;11.176;2022-12-08T15:25:17;4.30;99.90
4699;DHT22;33708;49.466;11.176;2022-12-08T15:27:43;4.30;99.90
4699;DHT22;33708;49.466;11.176;2022-12-08T15:30:16;4.40;99.90
4699;DHT22;33708;49.466;11.176;2022-12-08T15:32:42;4.40;99.90
4699;DHT22;33708;49.466;11.176;2022-12-08T15:35:12;4.50;99.90
4699;DHT22;33708;49.466;11.176;2022-12-08T15:37:38;4.40;99.90
4699;DHT22;33708;49.466;11.176;2022-12-08T15:40:05;4.20;99.90
4699;DHT22;33708;49.466;11.176;2022-12-08T15:42:31;4.30;99.90
4699;DHT22;33708;49.466;11.176;2022-12-08T15:44:57;4.20;99.90
4699;DHT22;33708;49.466;11.176;2022-12-08T15:47:23;4.00;99.90
4699;DHT22;33708;49.466;11.176;2022-12-08T15:49:50;3.90;99.90
4699;DHT22;33708;49.466;11.176;2022-12-08T15:52:22;3.90;99.90
4699;DHT22;33708;49.466;11.176;2022-12-08T15:54:49;4.00;99.90
4699;DHT22;33708;49.466;11.176;2022-12-08T15:57:29;4.10;99.90
4699;DHT22;33708;49.466;11.176;2022-12-08T15:59:56;4.20;99.90
4699;DHT22;33708;49.466;11.176;2022-12-08T16:02:23;4.30;99.90
4699;DHT22;33708;49.466;11.176;2022-12-08T16:04:48;4.30;99.90
4699;DHT22;33708;49.466;11.176;2022-12-08T16:07:26;4.50;99.90
4699;DHT22;33708;49.466;11.176;2022-12-08T16:09:53;4.40;99.90
4699;DHT22;33708;49.466;11.176;2022-12-08T16:12:22;4.30;99.90
4699;DHT22;33708;49.466;11.176;2022-12-08T16:15:07;4.30;99.90
4699;DHT22;33708;49.466;11.176;2022-12-08T16:17:34;4.20;99.90
4699;DHT22;33708;49.466;11.176;2022-12-08T16:20:00;4.40;99.90
4699;DHT22;33708;49.466;11.176;2022-12-08T16:22:29;4.30;99.90
4699;DHT22;33708;49.466;11.176;2022-12-08T16:24:55;4.10;99.90
4699;DHT22;33708;49.466;11.176;2022-12-08T16:27:26;4.10;99.90
4699;DHT22;33708;49.466;11.176;2022-12-08T16:29:54;4.20;99.90
4699;DHT22;33708;49.466;11.176;2022-12-08T16:32:20;4.20;99.90
4699;DHT22;33708;49.466;11.176;2022-12-08T16:34:47;4.00;99.90
4699;DHT22;33708;49.466;11.176;2022-12-08T16:37:17;4.00;99.90
4699;DHT22;33708;49.466;11.176;2022-12-08T16:39:44;4.00;99.90
4699;DHT22;33708;49.466;11.176;2022-12-08T16:42:14;4.20;99.90
4699;DHT22;33708;49.466;11.176;2022-12-08T16:45:01;4.20;99.90
4699;DHT22;33708;49.466;11.176;2022-12-08T16:47:27;4.30;99.90
4699;DHT22;33708;49.466;11.176;2022-12-08T16:49:53;4.30;99.90
4699;DHT22;33708;49.466;11.176;2022-12-08T16:52:19;4.40;99.90
4699;DHT22;33708;49.466;11.176;2022-12-08T16:54:44;4.30;99.90
4699;DHT22;33708;49.466;11.176;2022-12-08T16:57:10;4.30;99.90
4699;DHT22;33708;49.466;11.176;2022-12-08T16:59:37;4.50;99.90
4699;DHT22;33708;49.466;11.176;2022-12-08T17:02:03;4.50;99.90
4699;DHT22;33708;49.466;11.176;2022-12-08T17:04:30;4.20;99.90
4699;DHT22;33708;49.466;11.176;2022-12-08T17:06:56;4.10;99.90
4699;DHT22;33708;49.466;11.176;2022-12-08T17:09:23;4.40;99.90
4699;DHT22;33708;49.466;11.176;2022-12-08T17:11:48;4.10;99.90
4699;DHT22;33708;49.466;11.176;2022-12-08T17:14:14;4.10;99.90
4699;DHT22;33708;49.466;11.176;2022-12-08T17:16:41;4.10;99.90
4699;DHT22;33708;49.466;11.176;2022-12-08T17:19:06;4.00;99.90
4699;DHT22;33708;49.466;11.176;2022-12-08T17:21:32;3.90;99.90
4699;DHT22;33708;49.466;11.176;2022-12-08T17:23:58;3.70;99.90
4699;DHT22;33708;49.466;11.176;2022-12-08T17:26:24;3.50;99.90
4699;DHT22;33708;49.466;11.176;2022-12-08T17:28:49;3.40;99.90
4699;DHT22;33708;49.466;11.176;2022-12-08T17:31:15;3.50;99.90
4699;DHT22;33708;49.466;11.176;2022-12-08T17:33:42;3.50;99.90
4699;DHT22;33708;49.466;11.176;2022-12-08T17:36:11;3.50;99.90
4699;DHT22;33708;49.466;11.176;2022-12-08T17:38:37;3.40;99.90
4699;DHT22;33708;49.466;11.176;2022-12-08T17:41:04;3.40;99.90
4699;DHT22;33708;49.466;11.176;2022-12-08T17:43:31;3.30;99.90
4699;DHT22;33708;49.466;11.176;2022-12-08T17:45:57;3.40;99.90
4699;DHT22;33708;49.466;11.176;2022-12-08T17:48:24;3.40;99.90